To NAV CANADA Home Page Login to a new session Search on AWWS site Feedback and Comments Disclaimer Vers la page française équivalente Tips FAQ What's new on the site To the Forecasts and Observations / NOTAM section To "File a Flight Plan" website Publications and other links Update of the User's profile FIC Telephone Numbers My Weather Data Folder Route Weather Data Regional Weather Data Local Weather Data To the Forecasts and Observations / NOTAM section
Request Generated 02/23/2017 at 20:46:20 UTC . Weather information available at that time is displayed.

METAR/TAF

CALGARY/SPRINGBANK/AB    (show WxCam)

METAR CYBW 232000Z AUTO 15008KT 9SM OVC032 M04/M07 A2994 RMK SLP205=
METAR CYBW 231900Z AUTO 17009KT 9SM FEW014 M04/M07 A2997 RMK SLP212=
SPECI CYBW 231811Z AUTO 16007KT 9SM FEW010 BKN041 M06/M07 A2998 RMK
SLP220=
METAR CYBW 231800Z AUTO 17006KT 8SM -SN BKN041 M06/M06 A2999 RMK
SLP222=

TAF CYBW 231750Z 2318/2405 19005KT 2SM -SN BR BKN020 OVC050 TEMPO
2318/2320 6SM BR SCT020 BKN050
FM232000 15008KT P6SM BKN025 TEMPO 2320/2401 4SM -SHSN BKN020
BECMG 2323/2401 16012KT
FM240300 16010KT P6SM SCT030
RMK FCST BASED ON AUTO OBS. NXT FCST BY 240000Z=
Your time UTC time
Weather data provided by Environment Canada and NAV CANADA